Decoded Metar for KBNL (BROOKHAVEN LAB in SC, USA) (IATA:BNL) | Meteo·Mobile Aviation Weather
aviador You're here:

KBNL Decoded Metar

BROOKHAVEN LAB in SC, USA
Report Time2019-03-22 10:35:00
UTC Time2019-03-22 10:51:58
Flight Rules vfr VFR
Wind300° at 03 kt
W.Decomp.*RWY 35: 2.1 kt HW 2.1 kt LCW
RWY 23: 0.8 kt HW 2.9 kt RCW
W.Rank300° ranks 31
Current wind is below 300° avg. (6.0)
Visibility9999 m
Phenomena:N/A
Clouds:Few 043 Hf
Expected CloudBase > 800 ft AGL from Temp-Dew spread
CeilingNone
Temp04°C (ISA -11)
Dew Point02°C (87% RH)
AAT1.3°C
QNH1015 hPa
Density Alt-997 ft
Elevation246 ft
Report Wrong Elevation
Raw Report
METAR KBNL 221035Z AUTO 30003KT 10SM FEW043 04/02 A2996 RMK AO2=

Extra information for KBNL:More info

Metar Taf Metar & Taf Last 4 Metars F.Rules Stats Wind Profile Meteogram Temp Stats Airport Information Weather charts Add Link Nearby VenuesMetar ALERT Operation Metar Decoded Social comments

AIRNAV info for KBNL